Main page
METAR-TAF:

METAR-TAF

Airports :

Humberside Airport

Humberside, England

latitude: 53-35N, longitude: 000-21W, elevation: 31 m

Current weather observation

The report was made 10 minutes ago, at 06:20 UTC
Wind 8 kt from the South/Southwest
Temperature 12°C
Humidity 94%
Pressure 1016 hPa
Visibility 10 km or more
Few clouds at a height of 800 ft

METAR: EGNJ 170620Z 21008KT 9999 FEW008 12/11 Q1016

Time: 07:30 (06:30 UTC)

Forecast

The report was made 1 hour and 25 minutes ago, at 05:05 UTC
Forecast valid from 17 at 06 UTC to 17 at 15 UTC
Wind 10 kt from the Southwest
Visibility 10 km or more
Scattered clouds at a height of 4000 ft
Probability 30% :
Temporary
from 17 at 06 UTC to 17 at 09 UTC
Visibility: 8000 m
Broken clouds at a height of 800 ft
Becoming
from 17 at 09 UTC to 17 at 12 UTC
Wind 6 kt from the West/Northwest

TAF: EGNJ 170505Z 1706/1715 22010KT 9999 SCT040 PROB30 TEMPO 1706/1709 8000 BKN008 BECMG 1709/1712 30006KT

Weather observations and forecasts of more than 4000 airports (METAR and TAF reports).

The available stations are represented by yellow and red dots on the map.

Hover mouse over dot to see the name of the station.

Then click to see weather observations and forecasts.

To change the map : click on the green buttons with a black cross to zoom in, on the green button with a dash to zoom out, or on the green arrows for adjacent maps.


METAR-TAF: